sensor_id;sensor_type;location;lat;lon;timestamp;pressure;altitude;pressure_sealevel;temperature;humidity
9889;BME280;4983;42.112;24.738;2023-07-13T20:54:13;99403.50;;;31.38;52.53
9889;BME280;4983;42.112;24.738;2023-07-13T20:56:40;99406.19;;;31.58;53.86
9889;BME280;4983;42.112;24.738;2023-07-13T20:59:09;99400.66;;;31.48;52.04
9889;BME280;4983;42.112;24.738;2023-07-13T21:01:36;99396.22;;;31.37;52.07
9889;BME280;4983;42.112;24.738;2023-07-13T21:04:06;99400.44;;;31.34;52.98
9889;BME280;4983;42.112;24.738;2023-07-13T21:06:34;99402.44;;;31.24;53.25
9889;BME280;4983;42.112;24.738;2023-07-13T21:09:01;99395.09;;;31.33;52.65
9889;BME280;4983;42.112;24.738;2023-07-13T21:11:29;99394.63;;;31.01;53.15
9889;BME280;4983;42.112;24.738;2023-07-13T21:13:56;99410.22;;;31.37;54.10
9889;BME280;4983;42.112;24.738;2023-07-13T21:16:25;99411.63;;;31.34;54.48
9889;BME280;4983;42.112;24.738;2023-07-13T21:18:53;99403.28;;;31.09;52.74
9889;BME280;4983;42.112;24.738;2023-07-13T21:21:22;99402.69;;;31.17;53.50
9889;BME280;4983;42.112;24.738;2023-07-13T21:23:50;99405.78;;;31.26;54.36
9889;BME280;4983;42.112;24.738;2023-07-13T21:26:18;99401.84;;;31.22;52.60
9889;BME280;4983;42.112;24.738;2023-07-13T21:28:48;99406.00;;;31.39;53.42
9889;BME280;4983;42.112;24.738;2023-07-13T21:31:21;99406.88;;;31.30;54.83
9889;BME280;4983;42.112;24.738;2023-07-13T21:33:50;99409.91;;;31.38;55.51
9889;BME280;4983;42.112;24.738;2023-07-13T21:36:17;99424.47;;;31.40;55.18
9889;BME280;4983;42.112;24.738;2023-07-13T21:38:44;99411.38;;;31.26;56.50
9889;BME280;4983;42.112;24.738;2023-07-13T21:41:20;99440.50;;;30.95;60.07
9889;BME280;4983;42.112;24.738;2023-07-13T21:43:51;99456.41;;;30.99;61.81
9889;BME280;4983;42.112;24.738;2023-07-13T21:46:19;99438.25;;;30.87;59.09
9889;BME280;4983;42.112;24.738;2023-07-13T21:48:47;99429.31;;;30.80;58.00
9889;BME280;4983;42.112;24.738;2023-07-13T21:51:17;99424.84;;;30.74;57.66
9889;BME280;4983;42.112;24.738;2023-07-13T21:53:45;99423.72;;;30.75;57.14
9889;BME280;4983;42.112;24.738;2023-07-13T21:56:15;99413.63;;;30.59;57.56
9889;BME280;4983;42.112;24.738;2023-07-13T21:58:43;99416.72;;;30.77;57.16
9889;BME280;4983;42.112;24.738;2023-07-13T22:01:16;99423.69;;;30.60;57.26
9889;BME280;4983;42.112;24.738;2023-07-13T22:03:44;99429.03;;;30.71;58.08
9889;BME280;4983;42.112;24.738;2023-07-13T22:06:20;99436.03;;;30.79;58.96
9889;BME280;4983;42.112;24.738;2023-07-13T22:08:47;99435.19;;;30.68;59.63
9889;BME280;4983;42.112;24.738;2023-07-13T22:11:16;99451.38;;;30.76;61.77
9889;BME280;4983;42.112;24.738;2023-07-13T22:13:44;99440.75;;;30.83;59.59
9889;BME280;4983;42.112;24.738;2023-07-13T22:16:16;99435.16;;;30.73;59.63
9889;BME280;4983;42.112;24.738;2023-07-13T22:18:43;99440.19;;;30.66;61.58
9889;BME280;4983;42.112;24.738;2023-07-13T22:21:11;99436.00;;;30.69;61.25
9889;BME280;4983;42.112;24.738;2023-07-13T22:23:39;99436.28;;;30.62;62.83
9889;BME280;4983;42.112;24.738;2023-07-13T22:26:17;99436.53;;;30.31;61.76
9889;BME280;4983;42.112;24.738;2023-07-13T22:28:48;99427.47;;;29.99;63.72
9889;BME280;4983;42.112;24.738;2023-07-13T22:31:17;99434.84;;;30.35;64.60
9889;BME280;4983;42.112;24.738;2023-07-13T22:33:44;99448.25;;;30.38;68.31
9889;BME280;4983;42.112;24.738;2023-07-13T22:36:12;99433.19;;;30.49;68.56
9889;BME280;4983;42.112;24.738;2023-07-13T22:38:39;99423.69;;;30.30;66.43
9889;BME280;4983;42.112;24.738;2023-07-13T22:41:09;99422.56;;;30.26;66.52
9889;BME280;4983;42.112;24.738;2023-07-13T22:43:38;99425.91;;;30.28;69.88
9889;BME280;4983;42.112;24.738;2023-07-13T22:46:08;99417.50;;;30.23;68.87
9889;BME280;4983;42.112;24.738;2023-07-13T22:48:41;99406.34;;;30.38;68.02
9889;BME280;4983;42.112;24.738;2023-07-13T22:51:13;99411.94;;;30.13;68.20
9889;BME280;4983;42.112;24.738;2023-07-13T22:53:41;99402.94;;;30.01;68.39
9889;BME280;4983;42.112;24.738;2023-07-13T22:56:08;99402.09;;;30.05;68.29
9889;BME280;4983;42.112;24.738;2023-07-13T22:58:35;99396.72;;;29.74;71.02
9889;BME280;4983;42.112;24.738;2023-07-13T23:01:03;99388.06;;;29.70;69.47
9889;BME280;4983;42.112;24.738;2023-07-13T23:03:31;99401.66;;;29.57;70.74
9889;BME280;4983;42.112;24.738;2023-07-13T23:06:02;99402.59;;;29.21;70.68
9889;BME280;4983;42.112;24.738;2023-07-13T23:08:29;99424.47;;;29.44;73.47
9889;BME280;4983;42.112;24.738;2023-07-13T23:10:56;99412.19;;;29.45;72.78
9889;BME280;4983;42.112;24.738;2023-07-13T23:13:27;99400.41;;;29.33;72.23
9889;BME280;4983;42.112;24.738;2023-07-13T23:15:54;99397.41;;;29.44;72.28
9889;BME280;4983;42.112;24.738;2023-07-13T23:18:24;99388.50;;;29.52;71.72
9889;BME280;4983;42.112;24.738;2023-07-13T23:20:51;99390.34;;;29.27;72.78
9889;BME280;4983;42.112;24.738;2023-07-13T23:23:19;99404.25;;;28.80;74.33
9889;BME280;4983;42.112;24.738;2023-07-13T23:25:47;99407.56;;;28.77;75.60
9889;BME280;4983;42.112;24.738;2023-07-13T23:28:14;99406.34;;;29.00;77.06
9889;BME280;4983;42.112;24.738;2023-07-13T23:30:46;99400.56;;;28.75;76.23
9889;BME280;4983;42.112;24.738;2023-07-13T23:33:19;99405.47;;;28.58;78.81
9889;BME280;4983;42.112;24.738;2023-07-13T23:35:48;99403.78;;;28.57;78.87
9889;BME280;4983;42.112;24.738;2023-07-13T23:38:15;99394.91;;;28.60;77.10
9889;BME280;4983;42.112;24.738;2023-07-13T23:40:44;99393.66;;;28.46;78.72
9889;BME280;4983;42.112;24.738;2023-07-13T23:43:11;99396.28;;;28.57;79.25
9889;BME280;4983;42.112;24.738;2023-07-13T23:45:37;99381.34;;;28.73;76.68
9889;BME280;4983;42.112;24.738;2023-07-13T23:48:08;99377.81;;;28.83;76.22
9889;BME280;4983;42.112;24.738;2023-07-13T23:50:37;99365.16;;;28.70;75.97
9889;BME280;4983;42.112;24.738;2023-07-13T23:53:05;99371.25;;;28.62;76.62
9889;BME280;4983;42.112;24.738;2023-07-13T23:55:33;99365.69;;;28.62;76.37
9889;BME280;4983;42.112;24.738;2023-07-13T23:58:03;99389.34;;;28.65;75.53
